TRA82W LEPA-EHAM
Flight info
| Callsign | TRA82W |
|---|---|
| Flight time | N/A |
| Altitude | 36000 |
| Route | GALAT DCT RODRA DCT VNV DCT ANTON DCT BISES DCT SADUR DCT CAVES DCT LATRO DCT OLOXO DCT OKABI DCT TOU DCT ADABI DCT BOKNO UN858 VANAD UN874 BAMES UT191 PODEM DCT BAZOS DCT LUMIL DCT BELOB UY873 DENUT |
| Aircraft | B738/M-SDE2E3FGHIRWXY/LB1 |
Departure
| Time | 2026-05-04 12:19 |
|---|---|
| Airport | Palma de Mallorca Airport (LEPA) |
Arrival
| Time | N/A |
|---|---|
| Airport | Amsterdam Airport Schiphol (EHAM) |
| Time | Latitude | Longitude | Altitude | Speed | Heading |
|---|---|---|---|---|---|
| 2026-05-04 11:33 | 39.54871 | 2.73538 | 29 ft | 0 kts | 46° |
| 2026-05-04 12:08 | 39.54857 | 2.73519 | 29 ft | 4 kts | 47° |
| 2026-05-04 12:08 | 39.54841 | 2.73498 | 29 ft | 4 kts | 25° |
| 2026-05-04 12:08 | 39.54817 | 2.73494 | 29 ft | 4 kts | 339° |
| 2026-05-04 12:09 | 39.54793 | 2.73510 | 29 ft | 4 kts | 325° |
| 2026-05-04 12:09 | 39.54772 | 2.73530 | 29 ft | 3 kts | 328° |
| 2026-05-04 12:09 | 39.54753 | 2.73545 | 29 ft | 1 kts | 329° |
| 2026-05-04 12:09 | 39.54752 | 2.73545 | 29 ft | 1 kts | 329° |
| 2026-05-04 12:11 | 39.54755 | 2.73543 | 29 ft | 2 kts | 328° |
| 2026-05-04 12:11 | 39.54770 | 2.73519 | 29 ft | 6 kts | 291° |
| 2026-05-04 12:12 | 39.54753 | 2.73466 | 29 ft | 8 kts | 193° |
| 2026-05-04 12:12 | 39.54693 | 2.73500 | 29 ft | 10 kts | 151° |
| 2026-05-04 12:12 | 39.54639 | 2.73547 | 29 ft | 9 kts | 135° |
| 2026-05-04 12:12 | 39.54609 | 2.73621 | 29 ft | 9 kts | 129° |
| 2026-05-04 12:13 | 39.54590 | 2.73692 | 29 ft | 9 kts | 72° |
| 2026-05-04 12:14 | 39.55004 | 2.73988 | 29 ft | 16 kts | 328° |
| 2026-05-04 12:15 | 39.55113 | 2.73902 | 29 ft | 21 kts | 328° |
| 2026-05-04 12:15 | 39.55242 | 2.73801 | 29 ft | 23 kts | 328° |
| 2026-05-04 12:15 | 39.55383 | 2.73690 | 29 ft | 24 kts | 328° |
| 2026-05-04 12:15 | 39.55525 | 2.73579 | 29 ft | 23 kts | 329° |
| 2026-05-04 12:16 | 39.55635 | 2.73504 | 29 ft | 14 kts | 1° |
| 2026-05-04 12:16 | 39.55698 | 2.73589 | 29 ft | 14 kts | 58° |
| 2026-05-04 12:16 | 39.55757 | 2.73713 | 29 ft | 19 kts | 59° |
| 2026-05-04 12:16 | 39.55837 | 2.73883 | 29 ft | 25 kts | 59° |
| 2026-05-04 12:17 | 39.55933 | 2.74086 | 29 ft | 27 kts | 59° |
| 2026-05-04 12:17 | 39.56020 | 2.74271 | 29 ft | 22 kts | 58° |
| 2026-05-04 12:17 | 39.56094 | 2.74423 | 29 ft | 15 kts | 52° |
| 2026-05-04 12:17 | 39.56184 | 2.74441 | 29 ft | 14 kts | 328° |
| 2026-05-04 12:18 | 39.56251 | 2.74365 | 29 ft | 12 kts | 297° |
| 2026-05-04 12:18 | 39.56240 | 2.74287 | 29 ft | 5 kts | 239° |
| 2026-05-04 12:18 | 39.56227 | 2.74260 | 29 ft | 7 kts | 239° |
| 2026-05-04 12:18 | 39.56090 | 2.73968 | 29 ft | 77 kts | 238° |
| 2026-05-04 12:19 | 39.55683 | 2.73111 | 31 ft | 144 kts | 238° |
| 2026-05-04 12:19 | 39.55120 | 2.71917 | 610 ft | 155 kts | 238° |
| 2026-05-04 12:19 | 39.54541 | 2.70710 | 1482 ft | 154 kts | 235° |
| 2026-05-04 12:19 | 39.53962 | 2.69553 | 2340 ft | 164 kts | 236° |
| 2026-05-04 12:20 | 39.53275 | 2.68194 | 2688 ft | 191 kts | 236° |
| 2026-05-04 12:20 | 39.52519 | 2.66701 | 3201 ft | 202 kts | 236° |
| 2026-05-04 12:20 | 39.51732 | 2.65150 | 3882 ft | 208 kts | 236° |
| 2026-05-04 12:20 | 39.50935 | 2.63580 | 4720 ft | 208 kts | 236° |
| 2026-05-04 12:21 | 39.50138 | 2.62013 | 5575 ft | 209 kts | 236° |
| 2026-05-04 12:21 | 39.49331 | 2.60428 | 6359 ft | 212 kts | 236° |
| 2026-05-04 12:21 | 39.48513 | 2.58823 | 7120 ft | 215 kts | 236° |
| 2026-05-04 12:21 | 39.47687 | 2.57205 | 7939 ft | 216 kts | 235° |
| 2026-05-04 12:22 | 39.46853 | 2.55574 | 8732 ft | 218 kts | 235° |
| 2026-05-04 12:22 | 39.46015 | 2.53933 | 9530 ft | 220 kts | 235° |
| 2026-05-04 12:22 | 39.45215 | 2.52217 | 10153 ft | 230 kts | 248° |
| 2026-05-04 12:22 | 39.45073 | 2.50047 | 10367 ft | 263 kts | 278° |
| 2026-05-04 12:23 | 39.45911 | 2.47793 | 10578 ft | 298 kts | 305° |
| 2026-05-04 12:23 | 39.47531 | 2.45911 | 10800 ft | 329 kts | 321° |
| 2026-05-04 12:23 | 39.49496 | 2.44263 | 11298 ft | 341 kts | 323° |
| 2026-05-04 12:23 | 39.51501 | 2.42598 | 12058 ft | 344 kts | 322° |
| 2026-05-04 12:24 | 39.53496 | 2.40873 | 12893 ft | 345 kts | 322° |
| 2026-05-04 12:24 | 39.55492 | 2.39127 | 13680 ft | 348 kts | 323° |
| 2026-05-04 12:24 | 39.57581 | 2.37490 | 14343 ft | 354 kts | 325° |
| 2026-05-04 12:24 | 39.59728 | 2.35901 | 15038 ft | 357 kts | 326° |
| 2026-05-04 12:25 | 39.61899 | 2.34317 | 15803 ft | 359 kts | 325° |
| 2026-05-04 12:25 | 39.64047 | 2.32746 | 16525 ft | 360 kts | 325° |
| 2026-05-04 12:25 | 39.66237 | 2.31134 | 17226 ft | 363 kts | 324° |
| 2026-05-04 12:25 | 39.68437 | 2.29504 | 17920 ft | 366 kts | 324° |
| 2026-05-04 12:26 | 39.70652 | 2.27854 | 18559 ft | 369 kts | 324° |
| 2026-05-04 12:26 | 39.72887 | 2.26183 | 19108 ft | 373 kts | 324° |
| 2026-05-04 12:26 | 39.75145 | 2.24491 | 19665 ft | 376 kts | 323° |
| 2026-05-04 12:26 | 39.77422 | 2.22784 | 20228 ft | 380 kts | 323° |
| 2026-05-04 12:27 | 39.79722 | 2.21056 | 20796 ft | 384 kts | 323° |
| 2026-05-04 12:27 | 39.82046 | 2.19308 | 21278 ft | 389 kts | 323° |
| 2026-05-04 12:27 | 39.84403 | 2.17536 | 21806 ft | 392 kts | 323° |
| 2026-05-04 12:27 | 39.86775 | 2.15752 | 22349 ft | 395 kts | 323° |
| 2026-05-04 12:28 | 39.89166 | 2.13954 | 22873 ft | 399 kts | 324° |
| 2026-05-04 12:28 | 39.91747 | 2.12472 | 23359 ft | 413 kts | 336° |
| 2026-05-04 12:28 | 39.94560 | 2.11543 | 23809 ft | 422 kts | 342° |
| 2026-05-04 12:28 | 39.97470 | 2.10889 | 24221 ft | 427 kts | 345° |
| 2026-05-04 12:29 | 40.00429 | 2.10334 | 24625 ft | 431 kts | 345° |
| 2026-05-04 12:29 | 40.02395 | 2.09975 | 24905 ft | 433 kts | 345° |
| 2026-05-04 12:29 | 40.05396 | 2.09408 | 25309 ft | 436 kts | 345° |
| 2026-05-04 12:29 | 40.08403 | 2.08809 | 25708 ft | 439 kts | 344° |
| 2026-05-04 12:30 | 40.11427 | 2.08183 | 26089 ft | 441 kts | 344° |
| 2026-05-04 12:30 | 40.14467 | 2.07544 | 26475 ft | 444 kts | 344° |
| 2026-05-04 12:30 | 40.17531 | 2.06898 | 26842 ft | 447 kts | 344° |
| 2026-05-04 12:30 | 40.20604 | 2.06206 | 27206 ft | 450 kts | 343° |
| 2026-05-04 12:31 | 40.23692 | 2.05472 | 27586 ft | 452 kts | 342° |
| 2026-05-04 12:31 | 40.26793 | 2.04719 | 27931 ft | 455 kts | 343° |
| 2026-05-04 12:31 | 40.29916 | 2.03959 | 28264 ft | 458 kts | 343° |
| 2026-05-04 12:31 | 40.33066 | 2.03196 | 28618 ft | 461 kts | 343° |
| 2026-05-04 12:32 | 40.37257 | 2.02187 | 29066 ft | 465 kts | 343° |
| 2026-05-04 12:32 | 40.42610 | 2.00904 | 29604 ft | 469 kts | 343° |
| 2026-05-04 12:32 | 40.45835 | 2.00132 | 29932 ft | 472 kts | 343° |
| 2026-05-04 12:33 | 40.49072 | 1.99356 | 30177 ft | 475 kts | 343° |
| 2026-05-04 12:33 | 40.52340 | 1.98572 | 30398 ft | 478 kts | 343° |
| 2026-05-04 12:33 | 40.55616 | 1.97786 | 30662 ft | 480 kts | 343° |
| 2026-05-04 12:33 | 40.58912 | 1.96995 | 30955 ft | 481 kts | 343° |
| 2026-05-04 12:34 | 40.62158 | 1.96216 | 31309 ft | 480 kts | 343° |
| 2026-05-04 12:34 | 40.65436 | 1.95429 | 31696 ft | 479 kts | 342° |
| 2026-05-04 12:34 | 40.68711 | 1.94641 | 32034 ft | 478 kts | 342° |
| 2026-05-04 12:34 | 40.71978 | 1.93852 | 32346 ft | 478 kts | 342° |
| 2026-05-04 12:35 | 40.75257 | 1.93059 | 32662 ft | 478 kts | 342° |
| 2026-05-04 12:35 | 40.78530 | 1.92267 | 33004 ft | 478 kts | 342° |
| 2026-05-04 12:35 | 40.81796 | 1.91477 | 33341 ft | 477 kts | 341° |
| 2026-05-04 12:35 | 40.85060 | 1.90686 | 33680 ft | 477 kts | 341° |
| 2026-05-04 12:36 | 40.88328 | 1.89892 | 33924 ft | 478 kts | 341° |
| 2026-05-04 12:36 | 40.91606 | 1.89095 | 34186 ft | 479 kts | 341° |
| 2026-05-04 12:36 | 40.94883 | 1.88298 | 34456 ft | 478 kts | 341° |
| 2026-05-04 12:36 | 40.98149 | 1.87505 | 34763 ft | 477 kts | 341° |
| 2026-05-04 12:37 | 41.01401 | 1.86714 | 35068 ft | 475 kts | 341° |
| 2026-05-04 12:37 | 41.04648 | 1.85923 | 35352 ft | 474 kts | 341° |
| 2026-05-04 12:37 | 41.07886 | 1.85132 | 35596 ft | 473 kts | 341° |
| 2026-05-04 12:37 | 41.11125 | 1.84340 | 35842 ft | 473 kts | 341° |
| 2026-05-04 12:38 | 41.14370 | 1.83545 | 35958 ft | 475 kts | 341° |
| 2026-05-04 12:38 | 41.20895 | 1.81946 | 35969 ft | 477 kts | 341° |
| 2026-05-04 12:39 | 41.27400 | 1.80355 | 35935 ft | 471 kts | 341° |
| 2026-05-04 12:39 | 41.33828 | 1.78772 | 35978 ft | 470 kts | 341° |
| 2026-05-04 12:40 | 41.40263 | 1.77184 | 35956 ft | 470 kts | 341° |
| 2026-05-04 12:40 | 41.46698 | 1.75596 | 35933 ft | 470 kts | 341° |
| 2026-05-04 12:41 | 41.53135 | 1.74004 | 35946 ft | 471 kts | 341° |
| 2026-05-04 12:41 | 41.59588 | 1.72404 | 35947 ft | 472 kts | 341° |
| 2026-05-04 12:42 | 41.66050 | 1.70798 | 35928 ft | 473 kts | 341° |
| 2026-05-04 12:42 | 41.72519 | 1.69189 | 35933 ft | 473 kts | 341° |
| 2026-05-04 12:43 | 41.78988 | 1.67576 | 35947 ft | 473 kts | 342° |
| 2026-05-04 12:43 | 41.85463 | 1.65957 | 35936 ft | 473 kts | 342° |
| 2026-05-04 12:44 | 41.91939 | 1.64336 | 35929 ft | 473 kts | 342° |
| 2026-05-04 12:44 | 41.98402 | 1.62715 | 35939 ft | 472 kts | 342° |
| 2026-05-04 12:45 | 42.04846 | 1.61095 | 35935 ft | 471 kts | 342° |
| 2026-05-04 12:45 | 42.11292 | 1.59469 | 35936 ft | 471 kts | 342° |
| 2026-05-04 12:46 | 42.17736 | 1.57843 | 35931 ft | 470 kts | 342° |
| 2026-05-04 12:46 | 42.24147 | 1.56220 | 35951 ft | 468 kts | 342° |
| 2026-05-04 12:47 | 42.30542 | 1.54598 | 35966 ft | 467 kts | 342° |
| 2026-05-04 12:47 | 42.36919 | 1.52977 | 35958 ft | 465 kts | 342° |
| 2026-05-04 12:48 | 42.43256 | 1.51365 | 35964 ft | 469 kts | 343° |
| 2026-05-04 12:48 | 42.49761 | 1.50192 | 35970 ft | 474 kts | 347° |
| 2026-05-04 12:49 | 42.56342 | 1.49241 | 35944 ft | 476 kts | 347° |
| 2026-05-04 12:49 | 42.62933 | 1.48192 | 35931 ft | 477 kts | 347° |
| 2026-05-04 12:50 | 42.69517 | 1.47124 | 35939 ft | 476 kts | 346° |
| 2026-05-04 12:50 | 42.76107 | 1.46029 | 35915 ft | 478 kts | 346° |
| 2026-05-04 12:51 | 42.82721 | 1.44922 | 35921 ft | 479 kts | 346° |
| 2026-05-04 12:51 | 42.89333 | 1.43816 | 35904 ft | 479 kts | 346° |
| 2026-05-04 12:52 | 42.95934 | 1.42713 | 35900 ft | 477 kts | 346° |
| 2026-05-04 12:52 | 43.02497 | 1.41614 | 35926 ft | 474 kts | 347° |
| 2026-05-04 12:53 | 43.09051 | 1.40512 | 35914 ft | 474 kts | 346° |
| 2026-05-04 12:53 | 43.15593 | 1.39410 | 35904 ft | 473 kts | 347° |
| 2026-05-04 12:54 | 43.22123 | 1.38308 | 35914 ft | 472 kts | 347° |
| 2026-05-04 12:54 | 43.28637 | 1.37206 | 35910 ft | 472 kts | 347° |
| 2026-05-04 12:55 | 43.35150 | 1.36102 | 35912 ft | 471 kts | 347° |
| 2026-05-04 12:55 | 43.41661 | 1.34995 | 35907 ft | 472 kts | 347° |
| 2026-05-04 12:56 | 43.48178 | 1.33886 | 35916 ft | 472 kts | 347° |
| 2026-05-04 12:56 | 43.54655 | 1.32780 | 35910 ft | 473 kts | 347° |
| 2026-05-04 12:57 | 43.61185 | 1.31664 | 35912 ft | 473 kts | 347° |
| 2026-05-04 12:57 | 43.67731 | 1.30542 | 35919 ft | 474 kts | 347° |
| 2026-05-04 12:58 | 43.74282 | 1.29417 | 35921 ft | 475 kts | 347° |
| 2026-05-04 12:58 | 43.80849 | 1.28288 | 35913 ft | 476 kts | 347° |
| 2026-05-04 12:59 | 43.87425 | 1.27154 | 35919 ft | 476 kts | 348° |
| 2026-05-04 12:59 | 43.93991 | 1.26019 | 35912 ft | 475 kts | 348° |
| 2026-05-04 13:00 | 44.00545 | 1.24885 | 35910 ft | 474 kts | 348° |
| 2026-05-04 13:00 | 44.07077 | 1.23751 | 35924 ft | 472 kts | 348° |
| 2026-05-04 13:01 | 44.13589 | 1.22618 | 35920 ft | 471 kts | 348° |
| 2026-05-04 13:01 | 44.20078 | 1.21486 | 35921 ft | 469 kts | 348° |
| 2026-05-04 13:02 | 44.26614 | 1.20817 | 35920 ft | 472 kts | 354° |
| 2026-05-04 13:02 | 44.33188 | 1.20758 | 35922 ft | 472 kts | 356° |
| 2026-05-04 13:03 | 44.39759 | 1.20723 | 35918 ft | 472 kts | 355° |
| 2026-05-04 13:03 | 44.46279 | 1.20594 | 35929 ft | 472 kts | 354° |
| 2026-05-04 13:04 | 44.52894 | 1.20394 | 35934 ft | 480 kts | 354° |
| 2026-05-04 13:04 | 44.59633 | 1.20194 | 35929 ft | 489 kts | 354° |
| 2026-05-04 13:05 | 44.66485 | 1.20012 | 35917 ft | 495 kts | 355° |
| 2026-05-04 13:05 | 44.73390 | 1.19835 | 35925 ft | 497 kts | 355° |
| 2026-05-04 13:06 | 44.80323 | 1.19654 | 35906 ft | 498 kts | 355° |
| 2026-05-04 13:06 | 44.87245 | 1.19471 | 35911 ft | 497 kts | 355° |
| 2026-05-04 13:07 | 44.94155 | 1.19286 | 35917 ft | 496 kts | 355° |
| 2026-05-04 13:07 | 45.01042 | 1.19101 | 35928 ft | 494 kts | 355° |
| 2026-05-04 13:08 | 45.07906 | 1.18915 | 35909 ft | 493 kts | 355° |
| 2026-05-04 13:08 | 45.14758 | 1.18731 | 35907 ft | 491 kts | 355° |
| 2026-05-04 13:09 | 45.21572 | 1.18546 | 35921 ft | 489 kts | 355° |
| 2026-05-04 13:09 | 45.28372 | 1.18361 | 35912 ft | 488 kts | 355° |
| 2026-05-04 13:10 | 45.35147 | 1.18177 | 35923 ft | 487 kts | 355° |
| 2026-05-04 13:10 | 45.41925 | 1.17992 | 35927 ft | 487 kts | 355° |
| 2026-05-04 13:11 | 45.48696 | 1.17806 | 35923 ft | 487 kts | 355° |
| 2026-05-04 13:11 | 45.55484 | 1.17620 | 35927 ft | 488 kts | 355° |
| 2026-05-04 13:12 | 45.62285 | 1.17433 | 35935 ft | 490 kts | 355° |
| 2026-05-04 13:12 | 45.69109 | 1.17246 | 35942 ft | 491 kts | 355° |
| 2026-05-04 13:13 | 45.75937 | 1.17058 | 35938 ft | 491 kts | 355° |
| 2026-05-04 13:13 | 45.82769 | 1.16869 | 35948 ft | 491 kts | 356° |
| 2026-05-04 13:14 | 45.89563 | 1.16681 | 35942 ft | 492 kts | 356° |
| 2026-05-04 13:14 | 45.96447 | 1.16490 | 35938 ft | 491 kts | 356° |
| 2026-05-04 13:15 | 46.03231 | 1.16302 | 35940 ft | 491 kts | 356° |
| 2026-05-04 13:15 | 46.10057 | 1.16112 | 35932 ft | 490 kts | 356° |
| 2026-05-04 13:16 | 46.16878 | 1.15922 | 35941 ft | 490 kts | 356° |
| 2026-05-04 13:16 | 46.23683 | 1.15732 | 35932 ft | 489 kts | 356° |
| 2026-05-04 13:17 | 46.30484 | 1.15543 | 35927 ft | 488 kts | 356° |
| 2026-05-04 13:17 | 46.36174 | 1.15384 | 35930 ft | 488 kts | 356° |
| 2026-05-04 13:18 | 46.42953 | 1.15195 | 35931 ft | 487 kts | 356° |
| 2026-05-04 13:18 | 46.49737 | 1.15008 | 35928 ft | 487 kts | 356° |
| 2026-05-04 13:19 | 46.56465 | 1.14823 | 35937 ft | 487 kts | 356° |
| 2026-05-04 13:19 | 46.63284 | 1.14623 | 35925 ft | 487 kts | 356° |
| 2026-05-04 13:20 | 46.70014 | 1.14416 | 35930 ft | 487 kts | 356° |
| 2026-05-04 13:20 | 46.76786 | 1.14215 | 35928 ft | 487 kts | 356° |
| 2026-05-04 13:21 | 46.83566 | 1.14019 | 35928 ft | 487 kts | 356° |
| 2026-05-04 13:21 | 46.90344 | 1.13824 | 35932 ft | 487 kts | 356° |
| 2026-05-04 13:22 | 46.97128 | 1.13631 | 35929 ft | 488 kts | 356° |
| 2026-05-04 13:22 | 47.03910 | 1.13436 | 35933 ft | 488 kts | 356° |
| 2026-05-04 13:23 | 47.10704 | 1.13231 | 35920 ft | 488 kts | 356° |
| 2026-05-04 13:23 | 47.17490 | 1.13020 | 35926 ft | 488 kts | 356° |
| 2026-05-04 13:24 | 47.24271 | 1.12816 | 35924 ft | 487 kts | 356° |
| 2026-05-04 13:24 | 47.31047 | 1.12617 | 35921 ft | 486 kts | 356° |
| 2026-05-04 13:25 | 47.41186 | 1.12323 | 35926 ft | 485 kts | 356° |
| 2026-05-04 13:25 | 47.47931 | 1.12127 | 35929 ft | 484 kts | 356° |
| 2026-05-04 13:26 | 47.54676 | 1.11920 | 35913 ft | 485 kts | 356° |
| 2026-05-04 13:26 | 47.61416 | 1.11708 | 35922 ft | 484 kts | 356° |
| 2026-05-04 13:27 | 47.68143 | 1.11505 | 35923 ft | 483 kts | 357° |
| 2026-05-04 13:27 | 47.74858 | 1.11308 | 35929 ft | 482 kts | 357° |
| 2026-05-04 13:28 | 47.81566 | 1.11111 | 35941 ft | 482 kts | 357° |
| 2026-05-04 13:28 | 47.88274 | 1.10904 | 35941 ft | 482 kts | 357° |
| 2026-05-04 13:29 | 47.94977 | 1.10690 | 35941 ft | 482 kts | 357° |
| 2026-05-04 13:29 | 48.01673 | 1.10484 | 35944 ft | 481 kts | 357° |
| 2026-05-04 13:30 | 48.08362 | 1.10285 | 35940 ft | 481 kts | 357° |
| 2026-05-04 13:30 | 48.15046 | 1.10087 | 35948 ft | 480 kts | 357° |
| 2026-05-04 13:31 | 48.21724 | 1.10416 | 35942 ft | 482 kts | 10° |
| 2026-05-04 13:31 | 48.28032 | 1.13739 | 35955 ft | 482 kts | 30° |
| 2026-05-04 13:32 | 48.33787 | 1.18908 | 35967 ft | 482 kts | 32° |
| 2026-05-04 13:32 | 48.39536 | 1.24142 | 35953 ft | 483 kts | 31° |
| 2026-05-04 13:33 | 48.45324 | 1.29313 | 35947 ft | 484 kts | 31° |
| 2026-05-04 13:33 | 48.51116 | 1.34479 | 35964 ft | 485 kts | 31° |
| 2026-05-04 13:34 | 48.57014 | 1.39490 | 35950 ft | 487 kts | 27° |
| 2026-05-04 13:34 | 48.63005 | 1.44141 | 35951 ft | 487 kts | 27° |
| 2026-05-04 13:35 | 48.71998 | 1.51244 | 35951 ft | 485 kts | 28° |
| 2026-05-04 13:36 | 48.77956 | 1.56046 | 35960 ft | 484 kts | 28° |
| 2026-05-04 13:36 | 48.83895 | 1.60853 | 35961 ft | 484 kts | 28° |
| 2026-05-04 13:37 | 48.89833 | 1.65662 | 35964 ft | 484 kts | 28° |
| 2026-05-04 13:37 | 48.95773 | 1.70489 | 35952 ft | 484 kts | 30° |
| 2026-05-04 13:38 | 49.01654 | 1.75454 | 35970 ft | 484 kts | 28° |
| 2026-05-04 13:38 | 49.07636 | 1.80191 | 35949 ft | 485 kts | 28° |
| 2026-05-04 13:39 | 49.13595 | 1.85013 | 35961 ft | 485 kts | 29° |
| 2026-05-04 13:39 | 49.19537 | 1.89895 | 35970 ft | 485 kts | 29° |
| 2026-05-04 13:40 | 49.25481 | 1.94782 | 35968 ft | 486 kts | 29° |
| 2026-05-04 13:40 | 49.31443 | 1.99694 | 35961 ft | 487 kts | 29° |
| 2026-05-04 13:41 | 49.37394 | 2.04614 | 35963 ft | 486 kts | 29° |
| 2026-05-04 13:41 | 49.43345 | 2.09546 | 35967 ft | 485 kts | 29° |
| 2026-05-04 13:42 | 49.52340 | 2.16697 | 35985 ft | 485 kts | 27° |
| 2026-05-04 13:42 | 49.58397 | 2.21337 | 35962 ft | 487 kts | 27° |
| 2026-05-04 13:43 | 49.64412 | 2.25993 | 35935 ft | 486 kts | 27° |
| 2026-05-04 13:43 | 49.70429 | 2.30695 | 35955 ft | 484 kts | 27° |
| 2026-05-04 13:44 | 49.76430 | 2.35407 | 35963 ft | 483 kts | 27° |
| 2026-05-04 13:44 | 49.82425 | 2.40127 | 35952 ft | 483 kts | 27° |
| 2026-05-04 13:45 | 49.88418 | 2.44856 | 35958 ft | 483 kts | 27° |
| 2026-05-04 13:45 | 49.94375 | 2.49570 | 35971 ft | 483 kts | 27° |
| 2026-05-04 13:46 | 50.00365 | 2.54323 | 35971 ft | 484 kts | 27° |
| 2026-05-04 13:46 | 50.06366 | 2.59098 | 35966 ft | 484 kts | 27° |
| 2026-05-04 13:47 | 50.12362 | 2.63883 | 35965 ft | 485 kts | 27° |
| 2026-05-04 13:47 | 50.18365 | 2.68687 | 35965 ft | 485 kts | 27° |
| 2026-05-04 13:48 | 50.24271 | 2.73426 | 35691 ft | 469 kts | 27° |
| 2026-05-04 13:48 | 50.27151 | 2.75742 | 35383 ft | 461 kts | 28° |
| 2026-05-04 13:48 | 50.29994 | 2.78032 | 34954 ft | 458 kts | 28° |
| 2026-05-04 13:49 | 50.32812 | 2.80305 | 34575 ft | 454 kts | 28° |
| 2026-05-04 13:49 | 50.35615 | 2.82569 | 34186 ft | 452 kts | 28° |
| 2026-05-04 13:49 | 50.38401 | 2.84822 | 33767 ft | 449 kts | 28° |
| 2026-05-04 13:49 | 50.41170 | 2.87064 | 33316 ft | 447 kts | 28° |
| 2026-05-04 13:50 | 50.43923 | 2.89295 | 32916 ft | 444 kts | 28° |
| 2026-05-04 13:50 | 50.46661 | 2.91518 | 32499 ft | 442 kts | 28° |
| 2026-05-04 13:50 | 50.49377 | 2.93725 | 32093 ft | 439 kts | 28° |
| 2026-05-04 13:50 | 50.52079 | 2.95924 | 31707 ft | 436 kts | 29° |
| 2026-05-04 13:51 | 50.54759 | 2.98107 | 31335 ft | 432 kts | 29° |
| 2026-05-04 13:51 | 50.57418 | 3.00277 | 30960 ft | 429 kts | 29° |
| 2026-05-04 13:51 | 50.60056 | 3.02433 | 30595 ft | 426 kts | 29° |
| 2026-05-04 13:51 | 50.62675 | 3.04576 | 30228 ft | 423 kts | 29° |
| 2026-05-04 13:52 | 50.67872 | 3.08838 | 29432 ft | 417 kts | 29° |
| 2026-05-04 13:52 | 50.70432 | 3.10939 | 29060 ft | 413 kts | 29° |
| 2026-05-04 13:52 | 50.72966 | 3.13022 | 28670 ft | 409 kts | 29° |
| 2026-05-04 13:53 | 50.75476 | 3.15089 | 28304 ft | 405 kts | 29° |
| 2026-05-04 13:53 | 50.77966 | 3.17140 | 27935 ft | 401 kts | 29° |
| 2026-05-04 13:53 | 50.80431 | 3.19174 | 27557 ft | 398 kts | 29° |
| 2026-05-04 13:54 | 50.85311 | 3.23208 | 26816 ft | 393 kts | 28° |
| 2026-05-04 13:54 | 50.87723 | 3.25206 | 26456 ft | 390 kts | 28° |
| 2026-05-04 13:54 | 50.92491 | 3.29162 | 25755 ft | 384 kts | 28° |
| 2026-05-04 13:55 | 50.94852 | 3.31124 | 25392 ft | 382 kts | 28° |
| 2026-05-04 13:55 | 50.99525 | 3.35015 | 24701 ft | 377 kts | 28° |
| 2026-05-04 13:55 | 51.01840 | 3.36946 | 24358 ft | 375 kts | 28° |
| 2026-05-04 13:56 | 51.04140 | 3.38866 | 24010 ft | 373 kts | 28° |
| 2026-05-04 13:56 | 51.06428 | 3.40779 | 23659 ft | 371 kts | 27° |
| 2026-05-04 13:56 | 51.10972 | 3.44583 | 22886 ft | 367 kts | 27° |
| 2026-05-04 13:57 | 51.13216 | 3.46465 | 22533 ft | 363 kts | 27° |
| 2026-05-04 13:57 | 51.15442 | 3.48334 | 22174 ft | 360 kts | 27° |
| 2026-05-04 13:58 | 51.22001 | 3.53854 | 21155 ft | 351 kts | 28° |
| 2026-05-04 13:58 | 51.26291 | 3.57472 | 20487 ft | 346 kts | 28° |
| 2026-05-04 13:58 | 51.28402 | 3.59255 | 20198 ft | 341 kts | 28° |
| 2026-05-04 13:59 | 51.30469 | 3.61003 | 19868 ft | 340 kts | 28° |
| 2026-05-04 13:59 | 51.32550 | 3.62765 | 19541 ft | 338 kts | 28° |
| 2026-05-04 13:59 | 51.36676 | 3.66264 | 18875 ft | 334 kts | 28° |
| 2026-05-04 14:00 | 51.38722 | 3.68001 | 18555 ft | 332 kts | 28° |
| 2026-05-04 14:00 | 51.42784 | 3.71458 | 17852 ft | 329 kts | 28° |
| 2026-05-04 14:00 | 51.44794 | 3.73170 | 17504 ft | 326 kts | 28° |
| 2026-05-04 14:01 | 51.46788 | 3.74870 | 17174 ft | 324 kts | 28° |
| 2026-05-04 14:01 | 51.48132 | 3.76017 | 16957 ft | 322 kts | 28° |
| 2026-05-04 14:01 | 51.52031 | 3.79351 | 16301 ft | 318 kts | 27° |
| 2026-05-04 14:02 | 51.53978 | 3.81017 | 15990 ft | 316 kts | 27° |
| 2026-05-04 14:02 | 51.55896 | 3.82661 | 15671 ft | 314 kts | 27° |
| 2026-05-04 14:02 | 51.57825 | 3.84314 | 15356 ft | 312 kts | 27° |